Time;durP1;ratioP1;P1;durP2;ratioP2;P2;SDS_P1;SDS_P2;PMS_P1;PMS_P2;Temp;Humidity;BMP_temperature;BMP_pressure;BME280_temperature;BME280_humidity;BME280_pressure;Samples;Min_cycle;Max_cycle;Signal;HPM_P1;HPM_P2
2020/12/28 09:56:06;;;;;;;33.97;21.90;;;;;;;;;;4430782;32;20419;-56
2020/12/28 09:58:32;;;;;;;13.97;8.87;;;;;;;;;;4431247;32;20317;-55
2020/12/28 10:00:59;;;;;;;9.40;5.20;;;;;;;;;;4430936;32;20279;-55
2020/12/28 10:03:25;;;;;;;11.57;6.30;;;;;;;;;;4430883;32;20205;-55
2020/12/28 10:05:50;;;;;;;11.77;8.53;;;;;;;;;;4430866;32;20303;-55
2020/12/28 10:08:16;;;;;;;23.03;13.73;;;;;;;;;;4431190;32;20355;-55
2020/12/28 10:10:41;;;;;;;24.97;16.07;;;;;;;;;;4429547;32;20292;-55
2020/12/28 10:13:07;;;;;;;6.77;3.53;;;;;;;;;;4430977;32;20313;-54
2020/12/28 10:15:32;;;;;;;17.60;11.13;;;;;;;;;;4428488;32;20735;-55
2020/12/28 10:18:23;;;;;;;21.57;15.37;;;;;;;;;;4430075;32;20292;-56
2020/12/28 10:20:49;;;;;;;26.77;12.53;;;;;;;;;;4414537;32;20252;-55
2020/12/28 10:23:15;;;;;;;6.87;5.20;;;;;;;;;;4413849;32;20570;-55
2020/12/28 10:25:41;;;;;;;9.43;4.73;;;;;;;;;;4415335;32;20200;-56
2020/12/28 10:28:06;;;;;;;12.80;6.20;;;;;;;;;;4416046;32;20284;-55
2020/12/28 10:30:32;;;;;;;10.23;7.00;;;;;;;;;;4415142;32;20289;-55
2020/12/28 10:32:58;;;;;;;10.83;4.37;;;;;;;;;;4415930;32;20712;-54
2020/12/28 10:35:23;;;;;;;9.63;5.13;;;;;;;;;;4415706;32;20259;-56
2020/12/28 10:37:49;;;;;;;4.27;3.00;;;;;;;;;;4415747;32;20291;-57
2020/12/28 10:40:15;;;;;;;4.67;2.53;;;;;;;;;;4415364;32;20277;-57
2020/12/28 10:42:40;;;;;;;6.90;3.80;;;;;;;;;;4415440;32;20334;-58
2020/12/28 10:45:06;;;;;;;6.57;3.57;;;;;;;;;;4415168;32;20545;-57
2020/12/28 10:47:31;;;;;;;9.00;2.60;;;;;;;;;;4415283;32;20264;-57
2020/12/28 10:49:57;;;;;;;4.90;3.07;;;;;;;;;;4415099;32;20225;-57
2020/12/28 10:52:22;;;;;;;2.00;1.57;;;;;;;;;;4416146;32;20272;-57
2020/12/28 10:54:48;;;;;;;5.77;1.97;;;;;;;;;;4429240;32;20266;-56
2020/12/28 10:57:13;;;;;;;3.67;2.03;;;;;;;;;;4420005;32;20275;-57
2020/12/28 10:59:38;;;;;;;1.97;1.47;;;;;;;;;;4420434;32;20349;-56
2020/12/28 11:02:04;;;;;;;4.40;1.20;;;;;;;;;;4420169;32;20283;-57
2020/12/28 11:04:29;;;;;;;3.13;2.37;;;;;;;;;;4419963;32;20329;-57
2020/12/28 11:06:55;;;;;;;1.50;1.40;;;;;;;;;;4420323;32;20475;-56
2020/12/28 11:09:20;;;;;;;2.97;2.27;;;;;;;;;;4420058;32;20352;-57
2020/12/28 11:11:50;;;;;;;5.40;3.27;;;;;;;;;;4418860;32;20335;-57
2020/12/28 11:14:16;;;;;;;6.07;3.97;;;;;;;;;;4418833;32;20267;-56
2020/12/28 11:16:41;;;;;;;5.63;3.93;;;;;;;;;;4420160;32;20650;-55
2020/12/28 11:19:07;;;;;;;6.70;4.03;;;;;;;;;;4418893;32;20321;-57
2020/12/28 11:21:32;;;;;;;14.50;9.17;;;;;;;;;;4418913;32;20300;-57
2020/12/28 11:24:04;;;;;;;26.87;12.30;;;;;;;;;;4418979;32;20263;-56
2020/12/28 11:26:32;;;;;;;22.57;9.10;;;;;;;;;;4420244;32;20262;-57
2020/12/28 11:28:58;;;;;;;182.90;95.97;;;;;;;;;;4420110;32;20214;-56
2020/12/28 11:31:24;;;;;;;24.77;15.27;;;;;;;;;;4406259;32;20718;-57
2020/12/28 11:33:50;;;;;;;75.97;41.97;;;;;;;;;;4419769;32;20209;-55
2020/12/28 11:36:16;;;;;;;152.83;104.10;;;;;;;;;;4420020;32;20291;-58
2020/12/28 11:38:43;;;;;;;154.80;89.40;;;;;;;;;;4419998;32;20268;-56
2020/12/28 11:41:08;;;;;;;35.60;20.53;;;;;;;;;;4418677;32;20710;-56
2020/12/28 11:43:34;;;;;;;7.23;5.47;;;;;;;;;;4419931;32;20224;-55
2020/12/28 11:46:00;;;;;;;22.23;14.23;;;;;;;;;;4419964;32;20325;-57
2020/12/28 11:48:26;;;;;;;17.83;11.67;;;;;;;;;;4419741;32;20268;-57
2020/12/28 11:50:52;;;;;;;30.63;20.40;;;;;;;;;;4420024;32;20252;-57
2020/12/28 11:53:18;;;;;;;12.20;5.03;;;;;;;;;;4413260;32;20370;-55
2020/12/28 11:58:42;;;;;;;60.37;30.57;;;;;;;;;;4397087;32;20302;-57
2020/12/28 12:01:18;;;;;;;16.43;8.53;;;;;;;;;;4404382;32;20263;-56
2020/12/28 12:03:46;;;;;;;20.50;18.40;;;;;;;;;;4404419;32;20225;-57
2020/12/28 12:06:16;;;;;;;9.40;4.07;;;;;;;;;;4404274;32;20209;-58
2020/12/28 12:11:29;;;;;;;3.43;2.47;;;;;;;;;;4404417;32;20224;-58
2020/12/28 12:13:54;;;;;;;10.13;5.63;;;;;;;;;;4402863;32;20233;-57
2020/12/28 12:16:21;;;;;;;11.57;7.40;;;;;;;;;;4404639;32;20720;-58
2020/12/28 12:18:47;;;;;;;6.97;5.13;;;;;;;;;;4404063;32;20397;-56
2020/12/28 12:21:12;;;;;;;8.50;3.80;;;;;;;;;;4404557;32;20296;-57
2020/12/28 12:23:38;;;;;;;2.73;2.00;;;;;;;;;;4404510;32;20297;-57
2020/12/28 12:26:03;;;;;;;10.37;9.17;;;;;;;;;;4404521;32;20252;-57
2020/12/28 12:28:29;;;;;;;10.67;7.93;;;;;;;;;;4403104;32;20347;-55
2020/12/28 12:30:54;;;;;;;9.43;7.93;;;;;;;;;;4402851;32;20291;-56
2020/12/28 12:33:19;;;;;;;14.50;12.27;;;;;;;;;;4404159;32;20319;-57
2020/12/28 12:35:45;;;;;;;7.77;4.83;;;;;;;;;;4403991;32;20225;-58
2020/12/28 12:38:10;;;;;;;12.53;8.20;;;;;;;;;;4403968;32;20662;-55
2020/12/28 12:40:36;;;;;;;16.63;12.80;;;;;;;;;;4403938;32;20337;-56
2020/12/28 12:43:01;;;;;;;8.77;4.20;;;;;;;;;;4404105;32;20327;-57
2020/12/28 12:45:27;;;;;;;5.40;3.90;;;;;;;;;;4403855;32;20252;-58
2020/12/28 12:47:52;;;;;;;11.13;7.53;;;;;;;;;;4402619;32;20323;-58
2020/12/28 12:50:18;;;;;;;8.93;6.43;;;;;;;;;;4403640;32;20256;-55
2020/12/28 12:52:43;;;;;;;33.73;22.30;;;;;;;;;;4405380;32;20338;-57
2020/12/28 12:55:09;;;;;;;39.13;31.20;;;;;;;;;;4418428;32;20279;-57
2020/12/28 12:57:36;;;;;;;14.00;4.57;;;;;;;;;;4417752;32;20312;-57
2020/12/28 13:00:03;;;;;;;6.20;3.80;;;;;;;;;;4418890;32;20262;-57
2020/12/28 13:02:30;;;;;;;26.43;18.37;;;;;;;;;;4418641;32;20315;-58
2020/12/28 13:04:59;;;;;;;6.17;3.97;;;;;;;;;;4418856;32;20233;-57
2020/12/28 13:07:25;;;;;;;7.33;5.63;;;;;;;;;;4418836;32;20201;-57
2020/12/28 13:09:50;;;;;;;16.00;11.10;;;;;;;;;;4418796;32;20696;-57
2020/12/28 13:12:16;;;;;;;6.40;5.53;;;;;;;;;;4418661;32;20381;-58
2020/12/28 13:14:42;;;;;;;7.07;4.77;;;;;;;;;;4417185;32;20718;-55
2020/12/28 13:17:07;;;;;;;9.80;6.07;;;;;;;;;;4417373;32;20392;-57
2020/12/28 13:19:33;;;;;;;10.73;5.97;;;;;;;;;;4416852;32;20303;-58
2020/12/28 13:21:58;;;;;;;26.50;17.10;;;;;;;;;;4418869;32;20368;-57
2020/12/28 13:24:23;;;;;;;4.10;2.50;;;;;;;;;;4418501;32;20332;-56
2020/12/28 13:26:49;;;;;;;17.43;8.77;;;;;;;;;;4416944;32;20821;-57
2020/12/28 13:29:15;;;;;;;5.13;2.90;;;;;;;;;;4418121;32;20243;-57
2020/12/28 13:31:40;;;;;;;19.83;11.10;;;;;;;;;;4417340;32;20342;-58
2020/12/28 13:34:06;;;;;;;10.97;5.13;;;;;;;;;;4418230;32;20235;-55
2020/12/28 13:36:34;;;;;;;36.60;19.17;;;;;;;;;;4417203;32;20391;-55
2020/12/28 13:38:59;;;;;;;10.07;6.90;;;;;;;;;;4417099;32;20263;-56
2020/12/28 13:41:24;;;;;;;30.70;18.07;;;;;;;;;;4416930;32;20304;-58
2020/12/28 13:43:50;;;;;;;13.73;8.67;;;;;;;;;;4418274;32;20655;-58
2020/12/28 13:46:15;;;;;;;9.63;5.00;;;;;;;;;;4418351;32;20293;-58
2020/12/28 13:48:41;;;;;;;10.07;6.47;;;;;;;;;;4418044;32;20253;-57
2020/12/28 13:51:06;;;;;;;14.43;5.40;;;;;;;;;;4418482;32;20472;-58
2020/12/28 13:53:32;;;;;;;31.67;18.17;;;;;;;;;;4409892;32;20311;-58
2020/12/28 13:55:57;;;;;;;10.37;4.50;;;;;;;;;;4402735;32;20700;-59
2020/12/28 13:58:23;;;;;;;93.17;44.93;;;;;;;;;;4402703;32;20332;-58
2020/12/28 14:00:48;;;;;;;75.87;35.97;;;;;;;;;;4402860;32;20266;-58
2020/12/28 14:03:14;;;;;;;33.70;16.37;;;;;;;;;;4402603;32;20609;-58
2020/12/28 14:05:43;;;;;;;7.70;4.03;;;;;;;;;;4402530;32;20210;-55
2020/12/28 14:08:09;;;;;;;54.80;22.20;;;;;;;;;;4401728;32;20241;-56
2020/12/28 14:10:35;;;;;;;17.90;8.37;;;;;;;;;;4401700;32;20229;-55
2020/12/28 14:13:00;;;;;;;17.10;10.17;;;;;;;;;;4402719;32;20304;-57
2020/12/28 14:15:26;;;;;;;116.60;47.30;;;;;;;;;;4402696;32;20313;-58
2020/12/28 14:17:51;;;;;;;73.20;39.73;;;;;;;;;;4402921;32;20300;-57
2020/12/28 14:20:17;;;;;;;10.47;7.10;;;;;;;;;;4402878;32;20297;-57
2020/12/28 14:22:42;;;;;;;8.67;5.80;;;;;;;;;;4402584;32;20394;-58
2020/12/28 14:25:08;;;;;;;7.63;4.70;;;;;;;;;;4402841;32;20350;-56
2020/12/28 14:27:33;;;;;;;17.30;6.10;;;;;;;;;;4402623;32;20705;-58
2020/12/28 14:29:59;;;;;;;6.97;4.77;;;;;;;;;;4402839;32;20247;-57
2020/12/28 14:32:24;;;;;;;12.83;8.47;;;;;;;;;;4405382;32;20287;-58
2020/12/28 14:34:50;;;;;;;9.70;4.97;;;;;;;;;;4405407;32;20296;-58
2020/12/28 14:37:15;;;;;;;10.77;7.47;;;;;;;;;;4405407;32;20660;-59
2020/12/28 14:39:40;;;;;;;19.60;11.30;;;;;;;;;;4405368;32;20279;-57
2020/12/28 14:42:06;;;;;;;6.90;4.37;;;;;;;;;;4405659;32;20276;-58
2020/12/28 14:44:32;;;;;;;10.00;5.73;;;;;;;;;;4405581;32;20233;-55
2020/12/28 14:46:57;;;;;;;6.57;2.83;;;;;;;;;;4403803;32;20346;-58
2020/12/28 14:49:22;;;;;;;13.73;7.90;;;;;;;;;;4403871;32;20308;-58
2020/12/28 14:51:48;;;;;;;9.07;5.77;;;;;;;;;;4405258;32;20323;-59
2020/12/28 14:54:14;;;;;;;11.60;8.90;;;;;;;;;;4417325;32;20217;-56
2020/12/28 14:56:40;;;;;;;18.13;10.13;;;;;;;;;;4419188;32;20240;-56
2020/12/28 14:59:05;;;;;;;15.20;6.77;;;;;;;;;;4420490;32;20259;-57
2020/12/28 15:01:32;;;;;;;16.40;12.23;;;;;;;;;;4420512;32;20351;-56
2020/12/28 15:03:57;;;;;;;14.33;9.73;;;;;;;;;;4418846;32;20411;-58
2020/12/28 15:06:23;;;;;;;25.53;14.03;;;;;;;;;;4418926;32;20324;-58
2020/12/28 15:08:48;;;;;;;27.27;14.00;;;;;;;;;;4420194;32;20271;-58
2020/12/28 15:11:14;;;;;;;57.00;40.33;;;;;;;;;;4420068;32;20575;-58
2020/12/28 15:13:39;;;;;;;35.40;21.37;;;;;;;;;;4419927;32;20232;-58
2020/12/28 15:16:06;;;;;;;32.20;20.47;;;;;;;;;;4420262;32;20308;-58
2020/12/28 15:18:32;;;;;;;19.13;13.37;;;;;;;;;;4420263;32;20208;-57
2020/12/28 15:20:57;;;;;;;18.67;12.43;;;;;;;;;;4418746;32;20334;-58
2020/12/28 15:23:23;;;;;;;30.43;20.13;;;;;;;;;;4419948;32;20722;-58
2020/12/28 15:25:49;;;;;;;29.07;16.80;;;;;;;;;;4419936;32;20282;-57
2020/12/28 15:28:14;;;;;;;50.67;24.80;;;;;;;;;;4420219;32;20271;-58
2020/12/28 15:30:40;;;;;;;33.40;16.77;;;;;;;;;;4418611;32;20400;-58
2020/12/28 15:33:05;;;;;;;37.93;20.00;;;;;;;;;;4418923;32;20296;-58
2020/12/28 15:35:31;;;;;;;22.83;12.33;;;;;;;;;;4418408;32;20292;-58
2020/12/28 15:37:56;;;;;;;28.00;14.73;;;;;;;;;;4420071;32;20283;-58
2020/12/28 15:40:22;;;;;;;21.50;14.60;;;;;;;;;;4419739;32;20312;-58
2020/12/28 15:42:47;;;;;;;60.23;27.60;;;;;;;;;;4419323;32;20623;-58
2020/12/28 15:45:12;;;;;;;32.93;16.90;;;;;;;;;;4419752;32;20271;-58
2020/12/28 15:47:38;;;;;;;16.60;8.80;;;;;;;;;;4419624;32;20295;-58
2020/12/28 15:50:04;;;;;;;10.50;6.90;;;;;;;;;;4419271;32;20374;-56
2020/12/28 15:52:29;;;;;;;15.23;7.33;;;;;;;;;;4416767;32;20303;-58
2020/12/28 15:54:54;;;;;;;11.23;6.77;;;;;;;;;;4404200;32;20282;-56
2020/12/28 15:57:20;;;;;;;5.20;3.70;;;;;;;;;;4404237;32;20766;-58
2020/12/28 15:59:48;;;;;;;8.97;5.83;;;;;;;;;;4404293;32;20299;-58
2020/12/28 16:02:14;;;;;;;8.50;5.47;;;;;;;;;;4390797;32;20241;-58
2020/12/28 16:04:39;;;;;;;12.93;9.07;;;;;;;;;;4404275;32;20308;-58
2020/12/28 16:07:06;;;;;;;4.70;3.73;;;;;;;;;;4404269;32;20276;-58
2020/12/28 16:09:31;;;;;;;3.83;2.77;;;;;;;;;;4404038;32;20314;-58
2020/12/28 16:11:57;;;;;;;3.50;2.63;;;;;;;;;;4404120;32;20741;-57
2020/12/28 16:14:22;;;;;;;4.80;2.87;;;;;;;;;;4404437;32;20229;-56
2020/12/28 16:16:48;;;;;;;4.77;3.57;;;;;;;;;;4404467;32;20394;-58
2020/12/28 16:19:13;;;;;;;6.67;3.90;;;;;;;;;;4402686;32;20771;-58
2020/12/28 16:21:39;;;;;;;10.23;5.60;;;;;;;;;;4404112;32;20364;-56
2020/12/28 16:24:04;;;;;;;7.40;5.30;;;;;;;;;;4390062;32;20241;-58
2020/12/28 16:26:30;;;;;;;7.67;5.40;;;;;;;;;;4402597;32;20384;-58
2020/12/28 16:28:56;;;;;;;19.53;10.80;;;;;;;;;;4403619;32;20344;-57
2020/12/28 16:31:21;;;;;;;33.53;14.27;;;;;;;;;;4403761;32;20339;-58
2020/12/28 16:33:47;;;;;;;28.43;15.83;;;;;;;;;;4403710;32;20230;-58
2020/12/28 16:36:14;;;;;;;36.30;23.83;;;;;;;;;;4403552;32;20314;-56
2020/12/28 16:38:43;;;;;;;97.13;48.80;;;;;;;;;;4403571;32;20237;-58
2020/12/28 16:41:10;;;;;;;42.87;27.80;;;;;;;;;;4403706;32;20236;-58
2020/12/28 16:43:36;;;;;;;50.80;27.63;;;;;;;;;;4402152;32;20693;-57
2020/12/28 16:46:01;;;;;;;35.30;21.00;;;;;;;;;;4402542;32;20383;-58
2020/12/28 16:48:27;;;;;;;48.77;29.80;;;;;;;;;;4403536;32;20641;-56
2020/12/28 16:50:52;;;;;;;41.87;22.43;;;;;;;;;;4403499;32;20253;-56
2020/12/28 16:53:18;;;;;;;51.53;22.77;;;;;;;;;;4409470;32;20355;-56
2020/12/28 16:55:43;;;;;;;35.27;15.83;;;;;;;;;;4418317;32;20284;-58
2020/12/28 16:58:09;;;;;;;42.47;20.07;;;;;;;;;;4418351;32;20355;-57
2020/12/28 17:00:34;;;;;;;42.03;24.07;;;;;;;;;;4404464;32;20229;-56
2020/12/28 17:03:00;;;;;;;21.80;12.83;;;;;;;;;;4418645;32;20383;-58
2020/12/28 17:05:26;;;;;;;24.20;12.10;;;;;;;;;;4418439;32;20542;-56
2020/12/28 17:07:51;;;;;;;16.77;11.03;;;;;;;;;;4418495;32;20279;-58
2020/12/28 17:10:19;;;;;;;17.53;10.17;;;;;;;;;;4417974;32;20252;-57
2020/12/28 17:12:48;;;;;;;20.33;11.00;;;;;;;;;;4418139;32;20241;-56
2020/12/28 17:15:13;;;;;;;17.60;9.03;;;;;;;;;;4416910;32;20361;-58
2020/12/28 17:17:39;;;;;;;12.43;8.53;;;;;;;;;;4418093;32;20287;-57
2020/12/28 17:20:05;;;;;;;26.23;9.20;;;;;;;;;;4418283;32;20300;-58
2020/12/28 17:22:30;;;;;;;15.83;10.07;;;;;;;;;;4418437;32;20330;-56
2020/12/28 17:24:56;;;;;;;10.87;6.63;;;;;;;;;;4416749;32;20316;-56
2020/12/28 17:27:23;;;;;;;11.43;7.40;;;;;;;;;;4418292;32;20287;-57
2020/12/28 17:29:49;;;;;;;10.83;7.27;;;;;;;;;;4418185;32;20250;-58
2020/12/28 17:32:16;;;;;;;15.10;8.40;;;;;;;;;;4418159;32;20339;-58
2020/12/28 17:34:41;;;;;;;10.37;7.37;;;;;;;;;;4418089;32;20289;-58
2020/12/28 17:37:07;;;;;;;12.97;8.80;;;;;;;;;;4418122;32;20264;-57
2020/12/28 17:39:32;;;;;;;19.90;12.80;;;;;;;;;;4418236;32;20249;-58
2020/12/28 17:42:04;;;;;;;18.43;10.83;;;;;;;;;;4418225;32;20292;-57
2020/12/28 17:44:29;;;;;;;21.10;13.20;;;;;;;;;;4418211;32;20629;-58
2020/12/28 17:46:57;;;;;;;20.13;12.10;;;;;;;;;;4416818;32;20752;-58
2020/12/28 17:49:22;;;;;;;27.13;15.83;;;;;;;;;;4418344;32;20221;-56
2020/12/28 17:51:48;;;;;;;21.77;13.47;;;;;;;;;;4418528;32;20318;-58
2020/12/28 17:54:13;;;;;;;17.83;9.83;;;;;;;;;;4405444;32;20279;-57
2020/12/28 17:56:38;;;;;;;16.63;10.30;;;;;;;;;;4402772;32;20213;-57
2020/12/28 17:59:05;;;;;;;14.67;7.07;;;;;;;;;;4401438;32;20757;-56
2020/12/28 18:01:30;;;;;;;12.80;7.70;;;;;;;;;;4403140;32;20281;-57
2020/12/28 18:03:57;;;;;;;13.47;9.60;;;;;;;;;;4402727;32;20744;-58
2020/12/28 18:06:23;;;;;;;14.23;8.00;;;;;;;;;;4404117;32;20522;-58
2020/12/28 18:08:48;;;;;;;26.80;12.90;;;;;;;;;;4405630;32;20247;-58
2020/12/28 18:11:15;;;;;;;23.00;13.00;;;;;;;;;;4405704;32;20269;-58
2020/12/28 18:13:42;;;;;;;16.43;10.87;;;;;;;;;;4404819;32;20338;-58
2020/12/28 18:16:14;;;;;;;16.57;9.97;;;;;;;;;;4406044;32;20686;-56
2020/12/28 18:18:40;;;;;;;16.17;10.37;;;;;;;;;;4404219;32;20259;-57
2020/12/28 18:21:06;;;;;;;17.30;8.77;;;;;;;;;;4405485;32;20269;-55
2020/12/28 18:23:36;;;;;;;19.65;8.20;;;;;;;;;;4404320;32;20656;-58
2020/12/28 18:26:09;;;;;;;14.10;9.87;;;;;;;;;;4405641;32;20302;-58
2020/12/28 18:28:35;;;;;;;12.30;6.60;;;;;;;;;;4405621;32;20225;-59
2020/12/28 18:31:02;;;;;;;14.17;5.53;;;;;;;;;;4405415;32;20363;-57
2020/12/28 18:33:28;;;;;;;11.53;6.70;;;;;;;;;;4405769;32;20291;-55
2020/12/28 18:35:54;;;;;;;11.03;6.90;;;;;;;;;;4405147;32;20217;-55
2020/12/28 18:38:19;;;;;;;11.80;6.53;;;;;;;;;;4405540;32;20298;-57
2020/12/28 18:40:45;;;;;;;13.60;8.17;;;;;;;;;;4404081;32;20347;-58
2020/12/28 18:43:10;;;;;;;31.00;12.83;;;;;;;;;;4405231;32;20364;-58
2020/12/28 18:45:35;;;;;;;25.00;12.43;;;;;;;;;;4405049;32;20381;-58
2020/12/28 18:48:01;;;;;;;7.40;4.87;;;;;;;;;;4405396;32;20335;-56
2020/12/28 18:50:26;;;;;;;5.00;3.57;;;;;;;;;;4404852;32;20224;-56
2020/12/28 18:52:52;;;;;;;6.53;4.17;;;;;;;;;;4408666;32;20335;-58
2020/12/28 18:55:18;;;;;;;6.27;2.97;;;;;;;;;;4420191;32;20710;-58
2020/12/28 18:57:43;;;;;;;4.00;3.40;;;;;;;;;;4420189;32;20681;-55
2020/12/28 19:00:09;;;;;;;8.83;4.03;;;;;;;;;;4420063;32;20256;-56
2020/12/28 19:02:36;;;;;;;13.50;5.50;;;;;;;;;;4420218;32;20386;-59
2020/12/28 19:05:01;;;;;;;10.90;6.93;;;;;;;;;;4419963;32;20225;-59
2020/12/28 19:07:27;;;;;;;13.43;5.50;;;;;;;;;;4420259;32;20298;-59
2020/12/28 19:09:52;;;;;;;13.03;7.93;;;;;;;;;;4420055;32;20680;-60
2020/12/28 19:12:17;;;;;;;7.87;4.20;;;;;;;;;;4420304;32;20692;-55
2020/12/28 19:14:43;;;;;;;8.97;4.63;;;;;;;;;;4420095;32;20217;-58
2020/12/28 19:17:09;;;;;;;11.20;5.87;;;;;;;;;;4419766;32;20288;-56
2020/12/28 19:19:35;;;;;;;8.67;4.50;;;;;;;;;;4419724;32;20221;-59
2020/12/28 19:22:05;;;;;;;8.87;5.30;;;;;;;;;;4419992;32;20315;-59
2020/12/28 19:24:32;;;;;;;5.80;3.90;;;;;;;;;;4418764;32;20380;-58
2020/12/28 19:26:58;;;;;;;9.40;4.40;;;;;;;;;;4419563;32;20209;-56
2020/12/28 19:29:25;;;;;;;4.83;2.60;;;;;;;;;;4418959;32;20378;-56
2020/12/28 19:31:50;;;;;;;7.53;4.17;;;;;;;;;;4420069;32;20276;-58
2020/12/28 19:34:16;;;;;;;10.10;5.00;;;;;;;;;;4418466;32;20672;-59
2020/12/28 19:36:42;;;;;;;10.17;5.33;;;;;;;;;;4419602;32;20749;-60
2020/12/28 19:39:09;;;;;;;5.73;3.10;;;;;;;;;;4418503;32;20551;-59
2020/12/28 19:41:41;;;;;;;7.00;4.00;;;;;;;;;;4419497;32;20252;-59
2020/12/28 19:44:07;;;;;;;7.27;3.93;;;;;;;;;;4418218;32;20237;-58
2020/12/28 19:46:34;;;;;;;6.57;4.50;;;;;;;;;;4419815;32;20275;-60
2020/12/28 19:49:00;;;;;;;7.67;3.73;;;;;;;;;;4419533;32;20343;-60
2020/12/28 19:51:26;;;;;;;7.23;4.37;;;;;;;;;;4419377;32;20296;-56
2020/12/28 19:53:51;;;;;;;6.03;4.40;;;;;;;;;;4408093;32;20643;-59
2020/12/28 19:56:18;;;;;;;7.67;3.63;;;;;;;;;;4404116;32;20363;-59
2020/12/28 19:58:44;;;;;;;6.90;4.57;;;;;;;;;;4404278;32;20296;-59
2020/12/28 20:01:09;;;;;;;10.83;5.77;;;;;;;;;;4403099;32;20328;-59
2020/12/28 20:03:34;;;;;;;10.20;4.77;;;;;;;;;;4403800;32;20245;-59
2020/12/28 20:06:00;;;;;;;7.53;4.23;;;;;;;;;;4404115;32;20367;-58
2020/12/28 20:08:25;;;;;;;11.63;6.70;;;;;;;;;;4402754;32;20303;-59
2020/12/28 20:10:51;;;;;;;7.87;4.87;;;;;;;;;;4403834;32;20222;-61
2020/12/28 20:13:16;;;;;;;14.43;4.47;;;;;;;;;;4403775;32;20345;-59
2020/12/28 20:15:42;;;;;;;6.27;4.40;;;;;;;;;;4403777;32;20209;-56
2020/12/28 20:18:07;;;;;;;6.40;5.00;;;;;;;;;;4403889;32;20321;-59
2020/12/28 20:20:33;;;;;;;5.83;4.07;;;;;;;;;;4403937;32;20249;-56
2020/12/28 20:22:59;;;;;;;7.33;3.70;;;;;;;;;;4404399;32;20712;-58
2020/12/28 20:25:24;;;;;;;7.03;4.50;;;;;;;;;;4404094;32;20456;-56
2020/12/28 20:27:50;;;;;;;5.97;3.63;;;;;;;;;;4403269;32;20284;-60
2020/12/28 20:30:15;;;;;;;6.27;3.83;;;;;;;;;;4403700;32;20316;-59
2020/12/28 20:32:44;;;;;;;6.53;4.17;;;;;;;;;;4402628;32;20334;-60
2020/12/28 20:35:11;;;;;;;8.23;3.80;;;;;;;;;;4402629;32;20263;-58
2020/12/28 20:37:37;;;;;;;7.70;4.53;;;;;;;;;;4403934;32;20209;-56
2020/12/28 20:40:11;;;;;;;9.87;4.77;;;;;;;;;;4403785;32;20571;-56
2020/12/28 20:42:45;;;;;;;8.57;5.20;;;;;;;;;;4404044;32;20642;-55
2020/12/28 20:45:11;;;;;;;8.77;3.87;;;;;;;;;;4403584;32;20425;-59
2020/12/28 20:47:40;;;;;;;10.70;4.27;;;;;;;;;;4403749;32;20401;-60
2020/12/28 20:50:07;;;;;;;13.03;5.93;;;;;;;;;;4403788;32;20225;-60
2020/12/28 20:52:33;;;;;;;7.00;4.97;;;;;;;;;;4405471;32;20263;-57
2020/12/28 20:55:00;;;;;;;9.70;4.67;;;;;;;;;;4417427;32;20241;-60
2020/12/28 20:57:26;;;;;;;2.90;2.33;;;;;;;;;;4418914;32;20202;-59
2020/12/28 20:59:51;;;;;;;14.17;7.23;;;;;;;;;;4418498;32;20267;-59
2020/12/28 21:02:16;;;;;;;7.17;4.50;;;;;;;;;;4417355;32;20336;-55
2020/12/28 21:04:42;;;;;;;11.20;5.83;;;;;;;;;;4418428;32;20657;-59
2020/12/28 21:07:08;;;;;;;8.37;4.03;;;;;;;;;;4417473;32;20319;-56
2020/12/28 21:09:33;;;;;;;4.13;2.93;;;;;;;;;;4418404;32;20288;-56
2020/12/28 21:11:59;;;;;;;5.57;3.93;;;;;;;;;;4418296;32;20318;-55
2020/12/28 21:14:26;;;;;;;6.17;4.00;;;;;;;;;;4418530;32;20236;-59
2020/12/28 21:16:51;;;;;;;17.73;8.70;;;;;;;;;;4418800;32;20324;-55
2020/12/28 21:19:17;;;;;;;7.13;4.80;;;;;;;;;;4418442;32;20225;-59
2020/12/28 21:21:49;;;;;;;12.30;6.83;;;;;;;;;;4418780;32;20272;-57
2020/12/28 21:24:15;;;;;;;12.30;6.70;;;;;;;;;;4416932;32;20293;-57
2020/12/28 21:26:41;;;;;;;12.17;6.27;;;;;;;;;;4416949;32;20670;-58
2020/12/28 21:29:06;;;;;;;8.20;5.03;;;;;;;;;;4418244;32;20228;-60
2020/12/28 21:31:32;;;;;;;9.40;4.83;;;;;;;;;;4418155;32;20291;-57
2020/12/28 21:33:57;;;;;;;5.97;2.90;;;;;;;;;;4418176;32;20538;-58
2020/12/28 21:36:23;;;;;;;8.63;5.60;;;;;;;;;;4416889;32;20315;-55
2020/12/28 21:38:48;;;;;;;9.83;2.80;;;;;;;;;;4418275;32;20678;-59
2020/12/28 21:41:14;;;;;;;5.60;4.23;;;;;;;;;;4417860;32;20348;-58
2020/12/28 21:43:39;;;;;;;4.77;3.33;;;;;;;;;;4416664;32;20225;-59
2020/12/28 21:46:05;;;;;;;7.57;4.23;;;;;;;;;;4418341;32;20331;-59
2020/12/28 21:48:30;;;;;;;9.17;5.13;;;;;;;;;;4416906;32;20347;-59
2020/12/28 21:50:55;;;;;;;12.93;7.80;;;;;;;;;;4416841;32;20288;-56
2020/12/28 21:53:21;;;;;;;7.97;3.07;;;;;;;;;;4411174;32;20303;-58
2020/12/28 21:55:46;;;;;;;4.37;2.60;;;;;;;;;;4402403;32;20672;-59
2020/12/28 21:58:12;;;;;;;3.47;2.77;;;;;;;;;;4402596;32;20285;-59
2020/12/28 22:00:37;;;;;;;4.87;3.50;;;;;;;;;;4402377;32;20268;-59
2020/12/28 22:03:03;;;;;;;4.03;2.87;;;;;;;;;;4401557;32;20346;-59
2020/12/28 22:05:28;;;;;;;5.23;3.27;;;;;;;;;;4402579;32;20302;-59
2020/12/28 22:07:53;;;;;;;4.67;2.63;;;;;;;;;;4402975;32;20442;-59
2020/12/28 22:10:19;;;;;;;13.27;3.80;;;;;;;;;;4401871;32;20259;-60
2020/12/28 22:12:48;;;;;;;6.03;3.87;;;;;;;;;;4402706;32;20613;-56
2020/12/28 22:15:14;;;;;;;7.00;4.53;;;;;;;;;;4401345;32;20682;-59
2020/12/28 22:17:39;;;;;;;8.27;2.93;;;;;;;;;;4402538;32;20281;-59
2020/12/28 22:20:05;;;;;;;4.80;2.90;;;;;;;;;;4401221;32;20320;-56
2020/12/28 22:22:30;;;;;;;9.47;4.00;;;;;;;;;;4401177;32;20372;-59
2020/12/28 22:24:57;;;;;;;5.07;2.60;;;;;;;;;;4402608;32;20304;-60
2020/12/28 22:27:22;;;;;;;4.43;3.20;;;;;;;;;;4402714;32;20236;-59
2020/12/28 22:29:48;;;;;;;5.43;2.93;;;;;;;;;;4402400;32;20577;-60
2020/12/28 22:32:13;;;;;;;5.17;3.20;;;;;;;;;;4402702;32;20734;-55
2020/12/28 22:34:38;;;;;;;7.83;3.03;;;;;;;;;;4402755;32;20311;-59
2020/12/28 22:37:04;;;;;;;3.87;2.47;;;;;;;;;;4402570;32;20292;-59
2020/12/28 22:39:29;;;;;;;4.80;2.80;;;;;;;;;;4402430;32;20506;-59
2020/12/28 22:41:55;;;;;;;3.80;2.13;;;;;;;;;;4401067;32;20469;-60
2020/12/28 22:44:21;;;;;;;4.23;2.90;;;;;;;;;;4402620;32;20322;-57
2020/12/28 22:46:47;;;;;;;5.80;2.87;;;;;;;;;;4402765;32;20280;-59
2020/12/28 22:49:13;;;;;;;3.60;2.43;;;;;;;;;;4401469;32;20316;-56
2020/12/28 22:51:40;;;;;;;9.20;3.13;;;;;;;;;;4403291;32;20288;-56
2020/12/28 22:54:05;;;;;;;5.47;2.83;;;;;;;;;;4416452;32;20580;-59
2020/12/28 22:56:30;;;;;;;4.17;2.17;;;;;;;;;;4420930;32;20294;-59
2020/12/28 22:58:56;;;;;;;3.50;2.70;;;;;;;;;;4420471;32;20606;-56
2020/12/28 23:01:26;;;;;;;3.43;2.07;;;;;;;;;;4420741;32;20683;-57
2020/12/28 23:03:52;;;;;;;5.63;1.97;;;;;;;;;;4419986;32;20389;-59
2020/12/28 23:06:34;;;;;;;5.37;2.23;;;;;;;;;;4418979;32;20311;-60
2020/12/28 23:09:03;;;;;;;4.10;2.30;;;;;;;;;;4420132;32;20819;-56
2020/12/28 23:11:29;;;;;;;4.40;2.50;;;;;;;;;;4418967;32;20255;-56
2020/12/28 23:13:54;;;;;;;5.20;2.83;;;;;;;;;;4419091;32;20260;-58
2020/12/28 23:16:21;;;;;;;5.40;2.20;;;;;;;;;;4420446;32;20796;-59
2020/12/28 23:18:48;;;;;;;5.67;2.97;;;;;;;;;;4420024;32;20646;-59
2020/12/28 23:21:14;;;;;;;5.60;2.87;;;;;;;;;;4420124;32;20243;-59
2020/12/28 23:23:39;;;;;;;6.97;3.00;;;;;;;;;;4419779;32;20511;-59
2020/12/28 23:26:09;;;;;;;4.67;3.20;;;;;;;;;;4418405;32;20299;-59
2020/12/28 23:28:35;;;;;;;8.10;3.93;;;;;;;;;;4418597;32;20771;-60
2020/12/28 23:31:01;;;;;;;7.43;2.73;;;;;;;;;;4418316;32;20390;-59
2020/12/28 23:33:26;;;;;;;6.50;2.43;;;;;;;;;;4418601;32;20330;-59
2020/12/28 23:35:51;;;;;;;4.57;2.10;;;;;;;;;;4418444;32;20361;-57
2020/12/28 23:38:17;;;;;;;8.13;2.40;;;;;;;;;;4418346;32;20765;-60
2020/12/28 23:40:42;;;;;;;4.00;2.40;;;;;;;;;;4418030;32;20337;-60
2020/12/28 23:43:08;;;;;;;7.20;2.97;;;;;;;;;;4418536;32;20341;-60
2020/12/28 23:45:34;;;;;;;5.37;2.77;;;;;;;;;;4419688;32;20258;-60
2020/12/28 23:47:59;;;;;;;2.50;1.93;;;;;;;;;;4419817;32;20288;-57
2020/12/28 23:50:25;;;;;;;4.00;2.70;;;;;;;;;;4418183;32;20342;-60
2020/12/28 23:52:50;;;;;;;3.20;1.73;;;;;;;;;;4415922;32;20350;-59
2020/12/28 23:55:15;;;;;;;4.20;2.43;;;;;;;;;;4402697;32;20717;-56
2020/12/28 23:57:44;;;;;;;5.03;2.30;;;;;;;;;;4402883;32;20436;-59
